createdAt,value
2022-10-10T04:00:36.240Z,0.00
2022-10-10T04:05:36.166Z,0.00
2022-10-10T04:10:36.114Z,0.00
2022-10-10T04:15:43.124Z,0.00
2022-10-10T04:20:36.012Z,0.00
2022-10-10T04:25:35.946Z,0.00
2022-10-10T04:30:35.898Z,0.00
2022-10-10T04:35:37.226Z,0.00
2022-10-10T04:40:35.794Z,0.00
2022-10-10T04:45:37.672Z,0.00
2022-10-10T04:50:35.688Z,0.00
2022-10-10T04:55:35.649Z,0.00
2022-10-10T05:00:35.568Z,0.00
2022-10-10T05:05:35.515Z,0.00
2022-10-10T05:10:35.470Z,0.00
2022-10-10T05:15:35.427Z,4.00
2022-10-10T05:20:35.358Z,8.00
2022-10-10T05:25:35.297Z,20.00
2022-10-10T05:30:35.324Z,40.00
2022-10-10T05:35:35.212Z,84.00
2022-10-10T05:40:35.141Z,168.00
2022-10-10T05:45:35.090Z,280.00
2022-10-10T05:50:35.033Z,428.00
2022-10-10T05:55:34.998Z,612.00
2022-10-10T06:00:34.921Z,828.00
2022-10-10T06:05:34.864Z,1056.00
2022-10-10T06:10:34.818Z,1324.00
2022-10-10T06:15:34.780Z,1608.00
2022-10-10T06:20:34.712Z,2060.00
2022-10-10T06:25:42.357Z,2200.00
2022-10-10T06:30:35.600Z,2672.00
2022-10-10T06:35:34.562Z,2856.00
2022-10-10T06:40:34.495Z,4472.00
2022-10-10T06:45:34.436Z,4760.00
2022-10-10T06:50:34.398Z,5532.00
2022-10-10T06:55:34.352Z,4552.00
2022-10-10T07:00:34.319Z,4472.00
2022-10-10T07:05:34.223Z,6024.00
2022-10-10T07:10:34.170Z,9132.00
2022-10-10T07:15:34.132Z,6776.00
2022-10-10T07:20:34.056Z,5432.00
2022-10-10T07:25:34.004Z,5204.00
2022-10-10T07:30:33.948Z,5152.00
2022-10-10T07:35:33.910Z,5344.00
2022-10-10T07:40:33.837Z,5200.00
2022-10-10T07:45:33.788Z,5936.00
2022-10-10T07:50:33.726Z,6524.00
2022-10-10T07:55:33.702Z,5776.00
2022-10-10T08:00:33.627Z,5668.00
2022-10-10T08:05:33.561Z,5572.00
2022-10-10T08:10:33.504Z,5232.00
2022-10-10T08:15:34.134Z,5604.00
2022-10-10T08:20:33.470Z,5400.00
2022-10-10T08:25:33.436Z,5308.00
2022-10-10T08:30:33.276Z,5032.00
2022-10-10T08:35:33.251Z,4004.00
2022-10-10T08:40:33.190Z,3920.00
2022-10-10T08:45:33.112Z,4104.00
2022-10-10T08:50:33.069Z,4192.00
2022-10-10T08:55:33.040Z,4920.00
2022-10-10T09:00:33.080Z,4980.00
2022-10-10T09:05:32.896Z,5424.00
2022-10-10T09:10:32.854Z,5488.00
2022-10-10T09:15:32.830Z,5472.00
2022-10-10T09:20:32.730Z,5452.00
2022-10-10T09:25:32.687Z,5420.00
2022-10-10T09:30:32.648Z,5356.00
2022-10-10T09:35:32.785Z,5504.00
2022-10-10T09:40:32.525Z,5576.00
2022-10-10T09:45:32.470Z,5824.00
2022-10-10T09:50:32.400Z,6024.00
2022-10-10T09:55:32.486Z,6156.00
2022-10-10T10:00:32.317Z,5636.00
2022-10-10T10:05:32.237Z,6660.00
2022-10-10T10:10:32.196Z,5864.00
2022-10-10T10:15:39.249Z,7292.00
2022-10-10T10:20:32.077Z,5916.00
2022-10-10T10:25:32.103Z,5604.00
2022-10-10T10:30:31.980Z,5652.00
2022-10-10T10:35:31.950Z,5644.00
2022-10-10T10:40:31.877Z,6300.00
2022-10-10T10:45:31.822Z,5608.00
2022-10-10T10:50:31.766Z,6520.00
2022-10-10T10:55:33.115Z,7524.00
2022-10-10T11:01:24.213Z,7964.00
2022-10-10T11:05:39.935Z,5640.00
2022-10-10T11:10:31.554Z,8684.00
2022-10-10T11:15:47.952Z,7612.00
2022-10-10T11:20:32.460Z,6104.00
2022-10-10T11:25:31.391Z,7684.00
2022-10-10T11:30:31.330Z,6544.00
2022-10-10T11:35:31.294Z,6348.00
2022-10-10T11:40:31.220Z,6132.00
2022-10-10T11:45:31.166Z,6752.00
2022-10-10T11:50:31.105Z,7684.00
2022-10-10T11:55:31.165Z,6548.00
2022-10-10T12:00:30.991Z,6380.00
2022-10-10T12:05:30.945Z,6004.00
2022-10-10T12:10:30.869Z,5788.00
2022-10-10T12:15:30.847Z,5736.00
2022-10-10T12:20:30.814Z,5672.00
2022-10-10T12:25:30.717Z,5580.00
2022-10-10T12:30:30.655Z,5520.00
2022-10-10T12:35:30.626Z,5584.00
2022-10-10T12:40:30.547Z,5712.00
2022-10-10T12:45:30.522Z,6220.00
2022-10-10T12:50:30.435Z,6188.00
2022-10-10T12:55:30.403Z,7196.00
2022-10-10T13:00:30.323Z,5928.00
2022-10-10T13:05:30.272Z,6172.00
2022-10-10T13:10:30.211Z,7624.00
2022-10-10T13:15:30.181Z,6796.00
2022-10-10T13:20:30.107Z,6368.00
2022-10-10T13:25:30.050Z,6540.00
2022-10-10T13:30:30.007Z,4672.00
2022-10-10T13:35:29.953Z,5156.00
2022-10-10T13:40:29.886Z,4760.00
2022-10-10T13:45:30.705Z,4032.00
2022-10-10T13:50:29.759Z,4336.00
2022-10-10T13:55:29.742Z,4664.00
2022-10-10T14:00:29.677Z,5724.00
2022-10-10T14:05:29.600Z,5492.00
2022-10-10T14:10:29.562Z,3668.00
2022-10-10T14:15:29.526Z,3096.00
2022-10-10T14:20:29.433Z,3444.00
2022-10-10T14:25:29.391Z,3640.00
2022-10-10T14:30:29.348Z,3240.00
2022-10-10T14:35:29.287Z,2872.00
2022-10-10T14:40:29.230Z,2888.00
2022-10-10T14:45:29.178Z,3004.00
2022-10-10T14:50:29.124Z,2592.00
2022-10-10T14:55:29.228Z,2472.00
2022-10-10T15:00:29.152Z,2128.00
2022-10-10T15:05:28.965Z,1892.00
2022-10-10T15:10:36.146Z,1504.00
2022-10-10T15:15:29.874Z,1340.00
2022-10-10T15:20:28.794Z,1048.00
2022-10-10T15:25:33.432Z,800.00
2022-10-10T15:30:28.688Z,652.00
2022-10-10T15:35:44.626Z,716.00
2022-10-10T15:40:29.578Z,604.00
2022-10-10T15:45:51.467Z,312.00
2022-10-10T15:50:29.464Z,184.00
2022-10-10T15:55:28.438Z,196.00
2022-10-10T16:00:28.406Z,272.00
2022-10-10T16:05:28.304Z,448.00
2022-10-10T16:10:28.246Z,332.00
2022-10-10T16:15:28.216Z,180.00
2022-10-10T16:20:35.275Z,176.00
2022-10-10T16:25:28.106Z,188.00
2022-10-10T16:30:28.034Z,144.00
2022-10-10T16:35:27.991Z,84.00
2022-10-10T16:40:27.937Z,56.00
2022-10-10T16:45:27.864Z,32.00
2022-10-10T16:50:27.813Z,32.00
2022-10-10T16:55:27.779Z,32.00
2022-10-10T17:00:27.705Z,20.00
2022-10-10T17:05:27.648Z,8.00
2022-10-10T17:10:27.602Z,0.00
2022-10-10T17:15:27.568Z,0.00
2022-10-10T17:20:27.487Z,0.00
2022-10-10T17:25:27.431Z,0.00
2022-10-10T17:30:27.377Z,0.00
2022-10-10T17:35:27.336Z,0.00
2022-10-10T17:40:27.268Z,0.00
2022-10-10T17:45:27.321Z,0.00
2022-10-10T17:50:27.161Z,0.00
2022-10-10T17:55:27.119Z,0.00
2022-10-10T18:00:27.057Z,0.00
2022-10-10T18:05:26.994Z,0.00
2022-10-10T18:10:26.944Z,0.00
2022-10-10T18:15:26.900Z,0.00
2022-10-10T18:20:26.850Z,0.00
2022-10-10T18:25:26.773Z,0.00
2022-10-10T18:30:26.718Z,0.00
2022-10-10T18:35:26.685Z,0.00
2022-10-10T18:40:26.613Z,0.00
2022-10-10T18:45:26.571Z,0.00
2022-10-10T18:50:26.500Z,0.00
2022-10-10T18:55:26.471Z,0.00
2022-10-10T19:00:26.399Z,0.00
2022-10-10T19:05:26.327Z,0.00
2022-10-10T19:10:26.274Z,0.00
2022-10-10T19:15:26.246Z,0.00
2022-10-10T19:20:29.236Z,0.00
2022-10-10T19:25:26.129Z,0.00
2022-10-10T19:30:26.054Z,0.00
2022-10-10T19:35:26.017Z,0.00
2022-10-10T19:40:25.942Z,0.00
2022-10-10T19:45:25.887Z,0.00
2022-10-10T19:50:26.021Z,0.00
2022-10-10T19:55:25.874Z,0.00
2022-10-10T20:00:25.718Z,0.00
2022-10-10T20:05:25.670Z,0.00
2022-10-10T20:10:25.609Z,0.00
2022-10-10T20:15:25.577Z,0.00
2022-10-10T20:20:25.507Z,0.00
2022-10-10T20:25:25.456Z,0.00
2022-10-10T20:30:25.392Z,0.00
2022-10-10T20:35:25.360Z,0.00
2022-10-10T20:40:25.285Z,0.00
2022-10-10T20:45:25.231Z,0.00
2022-10-10T20:50:25.177Z,0.00
2022-10-10T20:55:25.139Z,0.00
2022-10-10T21:00:25.067Z,0.00
2022-10-10T21:05:25.020Z,0.00
2022-10-10T21:10:24.960Z,0.00
2022-10-10T21:15:24.927Z,0.00
2022-10-10T21:20:24.853Z,0.00
2022-10-10T21:25:24.805Z,0.00
2022-10-10T21:30:24.746Z,0.00
2022-10-10T21:35:24.723Z,0.00
2022-10-10T21:40:24.641Z,0.00
2022-10-10T21:45:24.588Z,0.00
2022-10-10T21:50:24.532Z,0.00
2022-10-10T21:55:24.498Z,0.00
2022-10-10T22:00:24.563Z,0.00
2022-10-10T22:05:24.374Z,0.00
2022-10-10T22:10:24.316Z,0.00
2022-10-10T22:15:24.280Z,0.00
2022-10-10T22:20:31.244Z,0.00
2022-10-10T22:25:24.166Z,0.00
2022-10-10T22:30:24.103Z,0.00
2022-10-10T22:35:24.075Z,0.00
2022-10-10T22:40:23.998Z,0.00
2022-10-10T22:45:23.938Z,0.00
2022-10-10T22:50:23.886Z,0.00
2022-10-10T22:55:23.859Z,0.00
2022-10-10T23:00:23.842Z,0.00
2022-10-10T23:05:23.729Z,0.00
2022-10-10T23:10:23.668Z,0.00
2022-10-10T23:15:23.676Z,0.00
2022-10-10T23:20:23.565Z,0.00
2022-10-10T23:25:23.507Z,0.00
